Time;durP1;ratioP1;P1;durP2;ratioP2;P2;SDS_P1;SDS_P2;PMS_P1;PMS_P2;Temp;Humidity;BMP_temperature;BMP_pressure;BME280_temperature;BME280_humidity;BME280_pressure;Samples;Min_cycle;Max_cycle;Signal;HPM_P1;HPM_P2
2022/05/11 00:00:05;;;;;;;5.53;3.35;;;;;;;7.87;74.08;93787.88;5090674;28;20519;-46
2022/05/11 00:02:30;;;;;;;4.38;3.63;;;;;;;7.89;74.25;93788.09;5090305;28;20024;-48
2022/05/11 00:04:56;;;;;;;3.67;3.13;;;;;;;7.77;74.78;93779.28;5090608;28;20039;-46
2022/05/11 00:07:21;;;;;;;5.32;3.60;;;;;;;7.86;75.12;93787.13;5090714;28;20020;-46
2022/05/11 00:09:47;;;;;;;4.63;3.25;;;;;;;8.06;74.47;93781.06;5090562;28;20028;-46
2022/05/11 00:12:12;;;;;;;4.65;2.97;;;;;;;8.10;74.60;93781.50;5090796;28;20039;-47
2022/05/11 00:14:38;;;;;;;5.75;3.25;;;;;;;8.17;74.08;93785.66;5090754;28;20024;-47
2022/05/11 00:17:03;;;;;;;6.38;3.00;;;;;;;8.27;73.19;93773.75;5090737;28;20020;-45
2022/05/11 00:19:29;;;;;;;4.22;3.47;;;;;;;8.16;73.37;93764.91;5090638;28;20055;-45
2022/05/11 00:21:54;;;;;;;4.80;3.75;;;;;;;8.10;74.02;93770.50;5090735;28;20435;-46
2022/05/11 00:24:20;;;;;;;3.85;3.35;;;;;;;8.12;73.85;93767.97;5093825;28;20036;-46
2022/05/11 00:26:45;;;;;;;4.78;3.53;;;;;;;7.92;74.76;93768.56;5110886;28;20605;-46
2022/05/11 00:29:11;;;;;;;5.13;3.70;;;;;;;7.93;74.52;93763.78;5110919;28;20511;-48
2022/05/11 00:31:36;;;;;;;7.43;3.75;;;;;;;7.91;74.17;93763.56;5110588;28;20027;-46
2022/05/11 00:34:02;;;;;;;5.65;3.63;;;;;;;7.87;74.30;93768.63;5110590;28;20020;-47
2022/05/11 00:36:27;;;;;;;5.40;3.90;;;;;;;7.78;74.23;93766.25;5110540;28;20019;-48
2022/05/11 00:38:53;;;;;;;4.72;3.63;;;;;;;7.69;74.41;93766.66;5110386;28;20082;-45
2022/05/11 00:41:18;;;;;;;5.63;3.72;;;;;;;7.53;74.52;93777.38;5110513;28;20024;-46
2022/05/11 00:43:56;;;;;;;4.00;3.55;;;;;;;7.30;75.50;93780.94;5110827;28;20020;-48
2022/05/11 00:46:26;;;;;;;7.45;4.38;;;;;;;7.36;75.45;93785.09;5110389;28;20081;-47
2022/05/11 00:51:45;;;;;;;5.70;3.73;;;;;;;7.37;74.70;93783.84;5109503;28;20084;-47
2022/05/11 00:54:12;;;;;;;5.30;4.18;;;;;;;7.37;74.56;93764.59;5109159;28;20519;-46
2022/05/11 00:56:43;;;;;;;6.15;3.85;;;;;;;7.29;75.01;93771.97;5109479;28;20015;-49
2022/05/11 00:59:11;;;;;;;3.53;2.97;;;;;;;7.47;74.65;93773.22;5110678;28;20011;-47
2022/05/11 01:01:38;;;;;;;3.77;2.73;;;;;;;7.34;74.21;93770.41;5110652;28;20029;-48
2022/05/11 01:04:08;;;;;;;3.88;3.10;;;;;;;7.39;74.05;93762.09;5110635;28;20407;-46
2022/05/11 01:06:33;;;;;;;3.92;3.53;;;;;;;7.27;74.40;93760.75;5110209;28;20019;-45
2022/05/11 01:09:01;;;;;;;5.90;3.30;;;;;;;7.22;75.40;93758.81;5110529;28;20019;-46
2022/05/11 01:11:26;;;;;;;4.22;3.40;;;;;;;7.12;75.97;93762.47;5110278;28;20485;-47
2022/05/11 01:13:52;;;;;;;4.25;3.55;;;;;;;7.27;76.34;93760.75;5110532;28;20024;-47
2022/05/11 01:16:17;;;;;;;6.75;3.80;;;;;;;7.28;75.20;93764.97;5114363;28;20153;-48
2022/05/11 01:18:43;;;;;;;5.38;4.60;;;;;;;7.16;75.02;93765.66;5114386;28;20510;-46
2022/05/11 01:21:08;;;;;;;4.30;3.63;;;;;;;7.32;75.15;93770.91;5104663;28;20557;-48
2022/05/11 01:23:41;;;;;;;6.15;4.22;;;;;;;7.50;74.27;93777.66;5093634;28;20057;-48
2022/05/11 01:26:07;;;;;;;4.78;3.72;;;;;;;7.39;74.51;93770.31;5093808;28;20032;-49
2022/05/11 01:28:33;;;;;;;7.05;4.13;;;;;;;7.29;74.37;93758.22;5093713;28;20035;-49
2022/05/11 01:31:06;;;;;;;7.03;3.80;;;;;;;7.48;74.35;93778.19;5093706;28;20085;-46
2022/05/11 01:33:32;;;;;;;3.22;2.92;;;;;;;7.41;74.15;93773.28;5093661;28;20484;-49
2022/05/11 01:36:21;;;;;;;5.93;3.55;;;;;;;7.41;73.67;93773.28;5099677;28;20015;-46
2022/05/11 01:38:47;;;;;;;7.18;3.83;;;;;;;7.47;73.52;93770.47;5113621;28;20134;-46
2022/05/11 01:41:17;;;;;;;4.03;3.42;;;;;;;7.37;74.11;93769.34;5113568;28;20027;-47
2022/05/11 01:43:43;;;;;;;4.00;3.05;;;;;;;7.44;74.51;93771.50;5113628;28;20020;-46
2022/05/11 01:46:09;;;;;;;4.03;3.40;;;;;;;7.46;74.67;93780.72;5113773;28;20512;-46
2022/05/11 01:48:34;;;;;;;5.60;3.17;;;;;;;7.33;74.27;93760.69;5113796;28;20016;-49
2022/05/11 01:51:00;;;;;;;4.38;3.13;;;;;;;7.39;74.39;93769.56;5113414;28;20452;-46
2022/05/11 01:53:26;;;;;;;5.45;3.72;;;;;;;7.37;74.55;93780.34;5113486;28;20027;-46
2022/05/11 01:55:52;;;;;;;6.20;3.92;;;;;;;7.55;73.69;93774.84;5113627;28;20068;-46
2022/05/11 01:58:18;;;;;;;6.05;4.40;;;;;;;7.39;73.45;93762.09;5113289;28;20644;-46
2022/05/11 02:00:45;;;;;;;5.80;4.13;;;;;;;7.42;74.38;93768.53;5113547;28;20020;-48
2022/05/11 02:03:10;;;;;;;7.88;4.07;;;;;;;7.26;74.27;93742.03;5111983;28;20164;-48
2022/05/11 02:08:20;;;;;;;7.13;3.85;;;;;;;7.36;73.99;93768.59;5113144;28;20107;-49
2022/05/11 02:10:46;;;;;;;5.97;3.90;;;;;;;7.32;74.43;93764.69;5113464;28;20480;-46
2022/05/11 02:13:12;;;;;;;4.43;3.65;;;;;;;7.16;74.59;93763.66;5112938;28;20057;-46
2022/05/11 02:15:37;;;;;;;4.90;3.50;;;;;;;7.12;74.60;93756.97;5112977;28;20076;-46
2022/05/11 02:18:04;;;;;;;3.80;3.10;;;;;;;7.28;74.64;93764.97;5113208;28;20027;-47
2022/05/11 02:20:29;;;;;;;5.28;3.60;;;;;;;7.20;75.37;93772.31;5113157;28;20023;-47
2022/05/11 02:22:55;;;;;;;4.80;3.70;;;;;;;7.39;75.06;93769.56;5112929;28;20517;-46
2022/05/11 02:25:21;;;;;;;10.38;3.45;;;;;;;7.45;74.46;93767.50;5112909;28;20027;-47
2022/05/11 02:27:48;;;;;;;5.07;3.75;;;;;;;7.64;73.60;93757.25;5112972;28;20499;-46
2022/05/11 02:30:20;;;;;;;5.70;4.35;;;;;;;7.40;74.56;93763.59;5112669;28;20059;-47
2022/05/11 02:32:45;;;;;;;5.47;3.38;;;;;;;7.32;75.10;93770.91;5113006;28;20047;-48
2022/05/11 02:35:14;;;;;;;6.20;4.53;;;;;;;7.33;75.27;93766.16;5112580;28;20420;-47
2022/05/11 02:37:52;;;;;;;5.65;4.68;;;;;;;7.24;75.63;93763.78;5112407;28;20611;-45
2022/05/11 02:40:21;;;;;;;7.45;4.50;;;;;;;7.41;75.76;93767.03;5112817;28;20027;-47
2022/05/11 02:42:46;;;;;;;7.80;4.00;;;;;;;7.41;75.80;93767.78;5112813;28;20434;-46
2022/05/11 02:45:14;;;;;;;4.20;3.60;;;;;;;7.53;75.63;93760.91;5112285;28;20031;-46
2022/05/11 02:47:40;;;;;;;4.53;3.70;;;;;;;7.37;75.96;93766.59;5112201;28;20048;-46
2022/05/11 02:50:07;;;;;;;4.90;4.03;;;;;;;7.38;77.04;93759.88;5112300;28;20515;-46
2022/05/11 02:52:33;;;;;;;7.07;4.57;;;;;;;7.49;76.79;93767.97;5112611;28;20093;-47
2022/05/11 02:54:59;;;;;;;6.82;3.70;;;;;;;7.53;76.06;93758.16;5112167;28;20535;-48
2022/05/11 02:57:24;;;;;;;5.05;3.45;;;;;;;7.61;75.67;93764.53;5112466;28;20068;-47
2022/05/11 02:59:50;;;;;;;4.47;3.65;;;;;;;7.71;75.25;93761.41;5112373;28;20476;-47
2022/05/11 03:02:20;;;;;;;5.00;4.50;;;;;;;7.50;75.81;93761.94;5112354;28;20477;-49
2022/05/11 03:04:46;;;;;;;7.18;4.10;;;;;;;7.64;75.69;93762.75;5112352;28;20404;-47
2022/05/11 03:07:12;;;;;;;6.50;4.75;;;;;;;7.71;75.48;93751.13;5111827;27;20488;-49
2022/05/11 03:09:37;;;;;;;6.13;5.15;;;;;;;7.93;74.93;93769.28;5111928;28;20085;-49
2022/05/11 03:12:03;;;;;;;7.85;5.65;;;;;;;8.00;74.15;93771.41;5111831;28;20046;-48
2022/05/11 03:14:28;;;;;;;9.73;5.10;;;;;;;8.04;73.07;93771.84;5111804;28;20041;-46
2022/05/11 03:16:54;;;;;;;7.25;5.05;;;;;;;8.08;72.99;93769.53;5108005;28;20016;-46
2022/05/11 03:19:19;;;;;;;7.57;6.32;;;;;;;8.06;72.64;93774.81;5091351;28;20432;-47
2022/05/11 03:21:44;;;;;;;8.07;6.55;;;;;;;8.22;72.33;93773.81;5091357;28;20039;-45
2022/05/11 03:24:10;;;;;;;8.77;5.93;;;;;;;8.26;72.63;93768.78;5091239;28;20027;-46
2022/05/11 03:26:35;;;;;;;6.22;5.20;;;;;;;8.20;73.19;93762.59;5091165;28;20031;-46
2022/05/11 03:29:05;;;;;;;9.18;5.10;;;;;;;8.10;73.96;93770.50;5091481;28;20032;-47
2022/05/11 03:31:35;;;;;;;8.70;6.30;;;;;;;8.10;74.61;93776.00;5091347;28;20047;-47
2022/05/11 03:36:44;;;;;;;5.65;4.68;;;;;;;8.17;73.98;93774.63;5103576;28;20080;-46
2022/05/11 03:39:10;;;;;;;8.20;5.07;;;;;;;8.13;74.69;93774.97;5111388;28;20019;-47
2022/05/11 03:41:36;;;;;;;6.57;5.38;;;;;;;8.12;75.13;93778.97;5111434;28;20038;-47
2022/05/11 03:44:02;;;;;;;5.82;4.55;;;;;;;8.16;74.94;93764.91;5111537;28;20054;-46
2022/05/11 03:46:27;;;;;;;4.22;3.83;;;;;;;8.22;75.37;93782.06;5111195;28;20464;-47
2022/05/11 03:48:53;;;;;;;4.93;4.40;;;;;;;8.30;75.38;93778.19;5111456;28;20024;-46
2022/05/11 03:51:18;;;;;;;4.93;3.97;;;;;;;8.30;75.31;93774.69;5111389;28;20496;-46
2022/05/11 03:53:44;;;;;;;5.00;4.18;;;;;;;8.45;75.30;93777.69;5111073;28;20100;-47
2022/05/11 03:56:10;;;;;;;5.82;4.70;;;;;;;8.34;75.83;93789.63;5111042;28;20019;-47
2022/05/11 03:58:35;;;;;;;5.95;4.63;;;;;;;8.61;75.33;93784.91;5111410;28;20020;-47
2022/05/11 04:01:00;;;;;;;7.95;4.28;;;;;;;8.68;75.32;93787.06;5111008;28;20027;-48
2022/05/11 04:03:26;;;;;;;7.22;5.20;;;;;;;8.78;74.72;93788.09;5110992;27;20024;-47
2022/05/11 04:05:52;;;;;;;11.00;6.28;;;;;;;8.79;74.35;93784.06;5110883;27;20020;-47
2022/05/11 04:08:17;;;;;;;16.13;7.88;;;;;;;8.81;73.48;93794.56;5110778;28;20031;-46
2022/05/11 04:10:43;;;;;;;12.80;8.30;;;;;;;8.84;72.57;93797.00;5111110;28;20031;-46
2022/05/11 04:13:08;;;;;;;14.15;8.90;;;;;;;8.71;72.88;93799.00;5106910;28;20032;-46
2022/05/11 04:15:34;;;;;;;13.65;8.95;;;;;;;8.84;72.43;93793.50;5090764;28;20028;-47
2022/05/11 04:17:59;;;;;;;13.93;8.68;;;;;;;8.89;72.17;93807.19;5090475;28;20454;-47
2022/05/11 04:20:25;;;;;;;17.35;8.93;;;;;;;9.04;71.61;93806.63;5090393;28;20036;-47
2022/05/11 04:22:50;;;;;;;13.07;8.80;;;;;;;9.03;72.29;93814.16;5090415;28;20024;-47
2022/05/11 04:25:16;;;;;;;11.93;7.15;;;;;;;9.00;72.03;93806.97;5090382;28;20027;-46
2022/05/11 04:27:48;;;;;;;11.63;7.60;;;;;;;9.01;72.96;93811.19;5090459;28;20024;-47
2022/05/11 04:30:15;;;;;;;39.65;18.98;;;;;;;9.08;72.78;93804.31;5090250;28;20071;-47
2022/05/11 04:32:41;;;;;;;36.85;19.65;;;;;;;9.24;72.99;93813.53;5090567;28;20493;-47
2022/05/11 04:35:07;;;;;;;28.45;16.75;;;;;;;9.36;72.75;93812.75;5090297;28;20110;-46
2022/05/11 04:37:33;;;;;;;23.00;14.07;;;;;;;9.29;73.13;93813.41;5109698;28;20511;-46
2022/05/11 04:39:58;;;;;;;25.20;15.35;;;;;;;9.39;73.09;93819.97;5110576;28;20196;-47
2022/05/11 04:42:24;;;;;;;18.33;13.38;;;;;;;9.54;72.55;93822.91;5110550;28;20044;-46
2022/05/11 04:44:49;;;;;;;17.17;12.98;;;;;;;9.69;72.18;93814.81;5110502;28;20484;-47
2022/05/11 04:47:17;;;;;;;16.20;11.95;;;;;;;9.70;71.75;93807.28;5110754;28;20023;-49
2022/05/11 04:49:43;;;;;;;18.42;10.90;;;;;;;9.79;72.71;93812.34;5113495;28;20399;-46
2022/05/11 18:20:07;;;;;;;4.18;3.28;;;;;;;15.45;57.48;93814.81;5064019;28;20644;-45
2022/05/11 18:22:33;;;;;;;3.58;2.40;;;;;;;15.22;58.39;93820.59;5064051;28;20033;-45
2022/05/11 18:24:58;;;;;;;3.42;2.88;;;;;;;15.16;57.81;93823.59;5063487;28;20036;-45
2022/05/11 18:27:24;;;;;;;10.88;4.53;;;;;;;15.00;58.51;93832.63;5044018;28;20227;-44
2022/05/11 18:29:49;;;;;;;5.60;3.50;;;;;;;14.70;59.95;93832.88;5044124;28;20493;-46
2022/05/11 18:32:14;;;;;;;4.63;3.28;;;;;;;14.66;59.57;93838.81;5043757;28;20489;-45
2022/05/11 18:34:40;;;;;;;3.75;3.17;;;;;;;14.60;59.61;93834.78;5043985;28;20025;-45
2022/05/11 18:37:09;;;;;;;3.75;2.60;;;;;;;14.64;59.04;93840.69;5043658;28;20428;-47
2022/05/11 18:39:35;;;;;;;3.92;3.10;;;;;;;14.49;60.35;93841.50;5043984;28;20029;-46
2022/05/11 18:42:01;;;;;;;4.32;2.90;;;;;;;14.37;60.28;93846.03;5043865;28;20073;-45
2022/05/11 18:44:26;;;;;;;3.03;2.72;;;;;;;14.47;59.64;93846.19;5043216;28;20032;-45
2022/05/11 18:46:52;;;;;;;3.67;3.22;;;;;;;14.14;60.10;93845.41;5043588;28;20025;-46
2022/05/11 18:49:18;;;;;;;3.67;2.78;;;;;;;14.12;60.70;93853.56;5043403;28;20030;-45
2022/05/11 18:51:44;;;;;;;4.20;3.15;;;;;;;14.01;61.13;93859.53;5043169;28;20041;-49
2022/05/11 18:54:09;;;;;;;3.40;2.75;;;;;;;13.78;61.20;93848.47;5043756;28;20504;-47
2022/05/11 18:56:35;;;;;;;4.97;3.90;;;;;;;13.73;61.85;93851.47;5043666;28;20017;-45
2022/05/11 18:59:00;;;;;;;4.32;3.75;;;;;;;13.64;62.15;93856.28;5043324;28;20053;-44
2022/05/11 19:01:28;;;;;;;6.15;3.08;;;;;;;13.49;61.80;93853.56;5043353;28;20028;-46
2022/05/11 19:03:54;;;;;;;4.05;3.30;;;;;;;13.37;62.60;93863.56;5043611;28;20143;-45
2022/05/11 19:06:19;;;;;;;4.40;3.50;;;;;;;13.47;62.52;93869.31;5043513;28;20029;-44
2022/05/11 19:08:45;;;;;;;6.28;4.00;;;;;;;13.57;61.96;93870.94;5043252;28;20021;-45
2022/05/11 19:11:11;;;;;;;6.35;3.55;;;;;;;13.43;62.56;93866.88;5043097;28;20502;-45
2022/05/11 19:13:37;;;;;;;4.55;3.78;;;;;;;13.53;62.80;93873.34;5043165;28;20025;-44
2022/05/11 19:16:04;;;;;;;4.78;3.65;;;;;;;13.52;62.08;93871.88;5043096;28;20021;-44
2022/05/11 19:18:30;;;;;;;7.88;4.00;;;;;;;13.55;62.62;93875.56;5042572;28;20090;-44
2022/05/11 19:20:55;;;;;;;3.33;2.90;;;;;;;13.47;61.64;93883.16;5030616;28;20030;-45
2022/05/11 19:23:21;;;;;;;3.28;2.90;;;;;;;13.23;62.67;93886.53;5029719;28;20033;-45
2022/05/11 19:25:50;;;;;;;5.82;2.85;;;;;;;13.24;62.70;93880.41;5030021;28;20418;-47
2022/05/11 19:28:17;;;;;;;3.47;2.53;;;;;;;13.13;62.65;93878.00;5029568;28;20025;-45
2022/05/11 19:30:43;;;;;;;5.43;2.90;;;;;;;13.14;63.51;93881.53;5030023;28;20026;-45
2022/05/11 19:33:08;;;;;;;3.25;2.75;;;;;;;13.28;62.48;93872.44;5029874;28;20546;-45
2022/05/11 19:35:34;;;;;;;5.13;3.28;;;;;;;13.17;62.93;93892.22;5029928;28;20445;-45
2022/05/11 19:38:01;;;;;;;6.80;3.53;;;;;;;13.24;62.49;93887.97;5029576;28;20108;-45
2022/05/11 19:40:28;;;;;;;3.35;3.05;;;;;;;12.93;63.28;93898.28;5029463;28;20108;-47
2022/05/11 19:42:54;;;;;;;4.85;3.50;;;;;;;12.94;63.32;93897.00;5029812;28;20022;-44
2022/05/11 19:45:20;;;;;;;4.53;3.75;;;;;;;12.79;64.02;93897.75;5029677;28;20128;-44
2022/05/11 19:47:45;;;;;;;2.88;2.58;;;;;;;12.70;63.93;93894.78;5029378;28;20075;-45
2022/05/11 19:50:14;;;;;;;4.03;3.40;;;;;;;12.59;64.51;93901.41;5029692;28;20029;-44
2022/05/11 19:52:39;;;;;;;4.07;3.17;;;;;;;12.58;64.61;93902.69;5029283;28;20108;-46
2022/05/11 19:55:06;;;;;;;3.13;2.90;;;;;;;12.49;64.72;93897.69;5029582;28;20096;-44
2022/05/11 19:57:32;;;;;;;5.00;3.10;;;;;;;12.34;64.71;93902.44;5029178;28;20493;-44
2022/05/11 19:59:58;;;;;;;4.22;3.40;;;;;;;12.31;64.99;93909.06;5029524;28;20025;-46
2022/05/11 20:02:25;;;;;;;3.38;2.97;;;;;;;12.21;65.76;93910.91;5029446;28;20028;-44
2022/05/11 20:04:53;;;;;;;4.47;3.10;;;;;;;12.26;66.16;93912.78;5029151;28;20054;-47
2022/05/11 20:07:19;;;;;;;3.42;2.92;;;;;;;12.33;65.33;93912.03;5028962;28;20516;-45
2022/05/11 20:09:45;;;;;;;3.17;2.85;;;;;;;12.23;65.79;93911.84;5028868;28;20626;-46
2022/05/11 20:12:13;;;;;;;6.75;3.80;;;;;;;12.24;65.41;93907.00;5028442;28;20051;-44
2022/05/11 20:14:39;;;;;;;14.48;9.15;;;;;;;12.02;65.43;93887.00;5029257;28;20029;-45
2022/05/11 20:17:05;;;;;;;11.02;7.20;;;;;;;12.13;66.14;93913.63;5028593;28;20026;-47
2022/05/11 20:19:30;;;;;;;12.13;7.85;;;;;;;11.99;66.99;93923.34;5028686;28;20025;-46
2022/05/11 20:21:56;;;;;;;9.13;5.72;;;;;;;11.85;66.57;93922.72;5028835;28;20032;-45
2022/05/11 20:24:22;;;;;;;9.57;5.82;;;;;;;11.97;66.70;93920.41;5028791;28;20030;-45
2022/05/11 20:26:47;;;;;;;16.08;10.32;;;;;;;11.93;66.54;93909.66;5029055;28;20037;-44
2022/05/11 20:29:13;;;;;;;27.05;12.63;;;;;;;11.78;67.21;93923.41;5028964;28;20018;-48
2022/05/11 20:37:06;;;;;;;37.15;18.00;;;;;;;11.77;67.55;93927.50;5028970;28;20037;-46
2022/05/11 20:39:32;;;;;;;23.58;12.85;;;;;;;11.58;67.81;93931.75;5028555;28;20018;-45
2022/05/11 20:41:58;;;;;;;15.90;9.75;;;;;;;11.57;67.96;93933.78;5028832;28;20074;-47
2022/05/11 20:44:23;;;;;;;8.63;6.32;;;;;;;11.48;67.34;93931.50;5028488;28;20469;-47
2022/05/11 20:46:50;;;;;;;4.47;3.70;;;;;;;11.46;67.25;93938.88;5028458;28;20437;-45
2022/05/11 20:49:15;;;;;;;4.00;3.58;;;;;;;11.49;66.91;93946.81;5028323;28;20494;-45
2022/05/11 20:51:41;;;;;;;32.05;5.05;;;;;;;11.51;67.12;93935.22;5028340;28;20036;-44
2022/05/11 20:54:07;;;;;;;5.85;3.00;;;;;;;11.32;67.38;93947.28;5028633;28;20021;-45
2022/05/11 20:56:32;;;;;;;3.42;3.13;;;;;;;11.15;67.24;93946.22;5028336;28;20101;-47
2022/05/11 20:58:58;;;;;;;4.32;3.83;;;;;;;11.19;66.86;93957.66;5028319;28;20023;-45
2022/05/11 21:01:23;;;;;;;5.00;4.13;;;;;;;11.03;68.40;93950.50;5028258;28;20078;-46
2022/05/11 21:03:49;;;;;;;10.98;6.55;;;;;;;11.06;67.74;93955.72;5028186;28;20017;-45
2022/05/11 21:06:15;;;;;;;4.22;3.53;;;;;;;11.01;67.84;93958.59;5028155;28;20033;-44
2022/05/11 21:08:41;;;;;;;5.15;3.70;;;;;;;10.91;68.04;93952.81;5028047;28;20030;-46
2022/05/11 21:11:06;;;;;;;10.68;3.60;;;;;;;10.96;68.34;93956.72;5028145;28;20088;-44
2022/05/11 21:13:31;;;;;;;5.82;3.10;;;;;;;10.96;68.43;93953.97;5028328;28;20097;-44
2022/05/11 21:15:57;;;;;;;4.03;3.10;;;;;;;10.79;68.46;93962.63;5028045;28;20013;-45
2022/05/11 21:18:23;;;;;;;4.88;3.15;;;;;;;10.61;69.39;93958.03;5026317;28;20137;-46
2022/05/11 21:20:48;;;;;;;6.30;3.20;;;;;;;10.32;70.21;93961.94;5028129;28;20057;-46
2022/05/11 21:23:14;;;;;;;6.43;3.20;;;;;;;10.66;69.16;93968.22;5028217;28;20029;-47
2022/05/11 21:25:39;;;;;;;3.22;2.92;;;;;;;10.73;69.01;93969.56;5028141;28;20025;-44
2022/05/11 21:28:07;;;;;;;4.63;3.50;;;;;;;10.55;69.69;93960.91;5028061;28;20668;-45
2022/05/11 21:30:34;;;;;;;2.95;2.65;;;;;;;10.57;69.34;93952.09;5027806;28;20502;-45
2022/05/11 21:33:00;;;;;;;3.47;2.85;;;;;;;10.74;68.87;93968.28;5027701;28;20748;-44
2022/05/11 21:35:26;;;;;;;8.13;4.45;;;;;;;10.77;68.91;93967.94;5028080;28;20415;-46
2022/05/11 21:37:52;;;;;;;11.30;6.43;;;;;;;10.79;69.71;93962.63;5027715;28;20029;-45
2022/05/11 21:40:21;;;;;;;11.90;5.72;;;;;;;10.65;69.45;93963.97;5027923;28;20105;-45
2022/05/11 21:42:46;;;;;;;5.95;3.58;;;;;;;10.53;68.89;93940.66;5027386;28;20036;-43
2022/05/11 21:45:14;;;;;;;3.92;3.50;;;;;;;10.45;69.40;93967.44;5027839;28;20025;-44
2022/05/11 21:47:40;;;;;;;4.00;3.15;;;;;;;10.36;69.91;93968.63;5027527;28;20068;-45
2022/05/11 21:50:07;;;;;;;4.40;3.47;;;;;;;10.49;69.44;93962.31;5027881;28;20665;-44
2022/05/11 21:52:33;;;;;;;4.13;3.63;;;;;;;10.56;69.13;93967.94;5027773;28;20068;-47
2022/05/11 21:54:58;;;;;;;6.47;4.53;;;;;;;10.17;69.92;93964.53;5027478;28;20057;-48
2022/05/11 21:57:24;;;;;;;6.93;5.40;;;;;;;10.11;70.51;93939.06;5027456;28;20098;-45
2022/05/11 21:59:50;;;;;;;9.43;5.97;;;;;;;10.30;70.19;93956.97;5027366;28;20060;-45
2022/05/11 22:02:15;;;;;;;13.52;7.57;;;;;;;10.29;70.33;93960.25;5027713;28;20021;-44
2022/05/11 22:04:40;;;;;;;15.88;6.53;;;;;;;10.10;70.83;93954.84;5027606;28;20026;-44
2022/05/11 22:07:06;;;;;;;10.30;6.55;;;;;;;9.70;71.76;93956.19;5027679;28;20029;-45
2022/05/11 22:09:32;;;;;;;12.05;7.32;;;;;;;9.75;70.08;93964.34;5027188;28;20022;-44
2022/05/11 22:11:57;;;;;;;9.45;6.80;;;;;;;9.97;69.75;93957.63;5026595;28;20067;-44
2022/05/11 22:14:23;;;;;;;7.25;5.70;;;;;;;9.87;69.38;93953.84;5027255;28;20022;-45
2022/05/11 22:16:48;;;;;;;7.85;6.68;;;;;;;9.78;69.34;93962.53;5026885;28;20029;-44
2022/05/11 22:19:14;;;;;;;13.32;8.48;;;;;;;9.73;69.79;93966.13;5027064;28;20048;-46
2022/05/11 22:21:39;;;;;;;10.00;7.10;;;;;;;9.77;69.59;93958.28;5027397;28;20026;-45
2022/05/11 22:24:05;;;;;;;9.73;7.28;;;;;;;9.85;69.45;93961.91;5027458;28;20449;-45
2022/05/11 22:26:31;;;;;;;13.18;7.38;;;;;;;9.86;70.01;93957.84;5027073;28;20054;-46
2022/05/11 22:28:56;;;;;;;9.43;6.53;;;;;;;9.84;70.13;93954.88;5026973;28;20070;-45
2022/05/11 22:31:22;;;;;;;10.00;7.35;;;;;;;9.71;70.52;93957.66;5027031;28;20036;-45
2022/05/11 22:33:48;;;;;;;8.70;6.43;;;;;;;9.72;70.10;93940.56;5027287;28;20676;-46
2022/05/11 22:36:13;;;;;;;6.82;5.53;;;;;;;9.79;69.01;93955.72;5027240;28;20550;-45
2022/05/11 22:38:41;;;;;;;7.15;5.15;;;;;;;9.47;68.92;93963.38;5027160;28;20036;-47
2022/05/11 22:41:07;;;;;;;11.82;4.95;;;;;;;9.45;69.42;93957.66;5027207;28;20021;-44
2022/05/11 22:43:33;;;;;;;8.02;5.30;;;;;;;9.50;69.81;93965.06;5026936;28;20036;-45
2022/05/11 22:46:00;;;;;;;11.15;6.00;;;;;;;9.51;70.11;93958.28;5027097;28;20022;-45
2022/05/11 22:48:26;;;;;;;7.03;5.15;;;;;;;9.50;70.15;93954.81;5027040;28;20018;-45
2022/05/11 22:50:53;;;;;;;10.23;6.72;;;;;;;9.43;70.62;93955.44;5026766;28;20417;-44
2022/05/11 22:53:20;;;;;;;7.97;6.10;;;;;;;9.34;70.93;93961.34;5027031;28;20417;-47
2022/05/11 22:55:45;;;;;;;6.80;5.65;;;;;;;9.21;71.06;93958.56;5029414;28;20086;-45
2022/05/11 22:58:11;;;;;;;7.47;5.90;;;;;;;9.20;70.98;93937.06;5030354;28;20063;-46
2022/05/11 23:00:39;;;;;;;7.25;5.47;;;;;;;9.35;70.22;93960.09;5030454;28;20021;-44
2022/05/11 23:03:05;;;;;;;6.88;5.75;;;;;;;9.29;70.45;93959.44;5030053;28;20017;-44
2022/05/11 23:05:31;;;;;;;9.45;5.20;;;;;;;9.19;70.56;93936.31;5030298;28;20101;-43
2022/05/11 23:07:57;;;;;;;8.38;5.63;;;;;;;9.11;70.66;93946.50;5030282;28;20013;-44
2022/05/11 23:10:26;;;;;;;7.15;5.57;;;;;;;9.12;71.25;93948.72;5030225;28;20056;-45
2022/05/11 23:12:52;;;;;;;;;;;;;;;8.94;70.81;93943.28;5030516;28;20116;-45
2022/05/11 23:15:18;;;;;;;5.90;5.10;;;;;;;8.73;71.31;93928.59;5030153;28;20038;-45
2022/05/11 23:17:44;;;;;;;8.23;6.00;;;;;;;8.87;71.46;93941.88;5029563;28;20501;-46
2022/05/11 23:20:11;;;;;;;7.93;5.60;;;;;;;9.03;70.07;93943.59;5030119;28;20037;-45
2022/05/11 23:22:37;;;;;;;5.50;4.78;;;;;;;9.05;69.37;93941.06;5029738;28;20064;-43
2022/05/11 23:25:03;;;;;;;5.53;4.78;;;;;;;9.05;69.79;93943.09;5030001;28;20112;-45
2022/05/11 23:27:29;;;;;;;5.90;4.72;;;;;;;8.82;70.77;93939.19;5029558;28;20037;-44
2022/05/11 23:29:54;;;;;;;9.10;4.53;;;;;;;8.89;69.64;93939.34;5029719;28;20080;-43
2022/05/11 23:32:20;;;;;;;4.05;3.63;;;;;;;8.85;70.09;93930.66;5029856;28;20029;-44
2022/05/11 23:34:45;;;;;;;5.30;4.38;;;;;;;8.78;70.46;93927.75;5029918;28;20414;-44
2022/05/11 23:37:11;;;;;;;8.10;4.68;;;;;;;8.79;69.98;93924.47;5029494;28;20030;-46
2022/05/11 23:39:36;;;;;;;7.97;5.28;;;;;;;8.68;70.75;93924.69;5029519;28;20037;-45
2022/05/11 23:42:02;;;;;;;7.65;4.90;;;;;;;8.57;71.52;93927.59;5029435;28;20025;-45
2022/05/11 23:44:27;;;;;;;7.68;4.93;;;;;;;8.43;71.35;93930.81;5029759;28;20030;-44
2022/05/11 23:46:53;;;;;;;6.28;4.53;;;;;;;8.29;72.44;93922.50;5029411;28;20029;-46
2022/05/11 23:49:18;;;;;;;9.52;5.50;;;;;;;8.43;71.22;93925.31;5029595;28;20018;-45
2022/05/11 23:51:44;;;;;;;10.05;6.05;;;;;;;8.12;71.81;93921.97;5029620;28;20056;-45
2022/05/11 23:54:10;;;;;;;7.63;5.85;;;;;;;8.15;72.24;93912.69;5029292;28;20026;-46
2022/05/11 23:56:35;;;;;;;8.48;5.78;;;;;;;8.33;72.03;93925.72;5029319;28;20093;-44
2022/05/11 23:59:01;;;;;;;6.90;5.85;;;;;;;8.41;71.60;93923.09;5029180;28;20030;-45
